Time;durP1;ratioP1;P1;durP2;ratioP2;P2;SDS_P1;SDS_P2;PMS_P1;PMS_P2;Temp;Humidity;BMP_temperature;BMP_pressure;BME280_temperature;BME280_humidity;BME280_pressure;Samples;Min_cycle;Max_cycle;Signal;HPM_P1;HPM_P2
2022/01/30 00:01:45;;;;;;;8.33;3.30;;;;;;;;;;5053683;28;20253;-79
2022/01/30 00:04:11;;;;;;;7.30;2.13;;;;;;;;;;5054048;28;20630;-77
2022/01/30 00:06:38;;;;;;;4.60;2.43;;;;;;;;;;5054047;28;20184;-78
2022/01/30 00:09:07;;;;;;;9.20;2.63;;;;;;;;;;5053611;28;20183;-78
2022/01/30 00:11:36;;;;;;;8.13;2.53;;;;;;;;;;5037658;28;20201;-77
2022/01/30 00:14:04;;;;;;;8.33;2.60;;;;;;;;;;5053787;28;20187;-78
2022/01/30 00:16:34;;;;;;;6.53;2.37;;;;;;;;;;5040244;28;20176;-77
2022/01/30 00:24:02;;;;;;;4.63;1.93;;;;;;;;;;5075535;28;20202;-78
2022/01/30 00:26:31;;;;;;;6.07;2.20;;;;;;;;;;5042133;28;20214;-78
2022/01/30 00:28:58;;;;;;;6.13;2.13;;;;;;;;;;5057549;28;20183;-80
2022/01/30 00:31:25;;;;;;;6.30;2.33;;;;;;;;;;5057513;28;20199;-78
2022/01/30 00:33:52;;;;;;;6.73;2.10;;;;;;;;;;5057628;28;20274;-77
2022/01/30 00:36:18;;;;;;;6.53;2.70;;;;;;;;;;5057343;28;20179;-79
2022/01/30 00:38:44;;;;;;;6.00;1.83;;;;;;;;;;5057215;28;20207;-78
2022/01/30 00:41:10;;;;;;;4.30;2.17;;;;;;;;;;5040451;28;20289;-77
2022/01/30 00:43:36;;;;;;;7.43;2.20;;;;;;;;;;5041039;28;20314;-78
2022/01/30 00:46:02;;;;;;;6.70;1.90;;;;;;;;;;5057232;28;20262;-78
2022/01/30 00:48:29;;;;;;;7.53;2.27;;;;;;;;;;5056985;28;20662;-78
2022/01/30 00:50:55;;;;;;;7.50;2.23;;;;;;;;;;5057087;28;20203;-77
2022/01/30 00:53:21;;;;;;;6.93;2.50;;;;;;;;;;5057200;28;20179;-77
2022/01/30 00:55:47;;;;;;;5.23;2.23;;;;;;;;;;5057069;28;20332;-77
2022/01/30 00:58:13;;;;;;;6.77;2.33;;;;;;;;;;5057115;28;20603;-78
2022/01/30 01:00:40;;;;;;;4.53;2.20;;;;;;;;;;5040322;28;20233;-77
2022/01/30 01:03:06;;;;;;;6.80;2.50;;;;;;;;;;5056884;28;20188;-78
2022/01/30 01:05:34;;;;;;;6.90;2.47;;;;;;;;;;5057024;28;20183;-77
2022/01/30 01:08:08;;;;;;;5.57;2.33;;;;;;;;;;5056626;28;20313;-77
2022/01/30 01:11:00;;;;;;;6.57;2.20;;;;;;;;;;5041650;28;20182;-79
2022/01/30 01:13:53;;;;;;;6.40;2.60;;;;;;;;;;5073282;28;20207;-77
2022/01/30 01:24:08;;;;;;;5.83;2.50;;;;;;;;;;5074622;28;20183;-77
2022/01/30 01:26:35;;;;;;;6.93;2.17;;;;;;;;;;5040050;28;20179;-77
2022/01/30 01:29:02;;;;;;;7.00;2.40;;;;;;;;;;5039772;28;20188;-77
2022/01/30 01:31:28;;;;;;;6.87;2.30;;;;;;;;;;5056582;28;20209;-77
2022/01/30 01:36:20;;;;;;;8.90;2.13;;;;;;;;;;5074234;28;20175;-77
2022/01/30 01:38:46;;;;;;;5.57;2.03;;;;;;;;;;5056111;28;20660;-77
2022/01/30 01:41:17;;;;;;;6.60;2.20;;;;;;;;;;5039722;28;20204;-77
2022/01/30 01:43:43;;;;;;;4.10;1.93;;;;;;;;;;5040199;28;20182;-78
2022/01/30 01:46:15;;;;;;;6.90;1.70;;;;;;;;;;5039746;28;20183;-77
2022/01/30 01:48:43;;;;;;;5.57;2.13;;;;;;;;;;5040259;28;20178;-77
2022/01/30 01:51:19;;;;;;;6.30;2.30;;;;;;;;;;5055985;28;20672;-79
2022/01/30 01:53:47;;;;;;;7.40;2.20;;;;;;;;;;5056005;28;20176;-79
2022/01/30 01:56:14;;;;;;;4.37;2.00;;;;;;;;;;5039659;28;20607;-79
2022/01/30 01:58:40;;;;;;;7.10;1.73;;;;;;;;;;5055828;28;20525;-77
2022/01/30 02:01:07;;;;;;;7.60;2.10;;;;;;;;;;5059822;22;20210;-80
2022/01/30 02:03:37;;;;;;;5.10;1.80;;;;;;;;;;5014109;28;20662;-79
2022/01/30 02:06:04;;;;;;;4.90;1.90;;;;;;;;;;5014619;28;20188;-80
2022/01/30 02:08:35;;;;;;;4.40;1.77;;;;;;;;;;5013912;28;20257;-79
2022/01/30 02:24:37;;;;;;;5.40;1.50;;;;;;;;;;5015888;28;20183;-80
2022/01/30 02:27:03;;;;;;;4.37;1.40;;;;;;;;;;4982928;28;20185;-81
2022/01/30 02:29:29;;;;;;;4.03;1.53;;;;;;;;;;4981248;28;20212;-80
2022/01/30 02:31:57;;;;;;;3.73;1.50;;;;;;;;;;4981551;28;20232;-79
2022/01/30 02:34:27;;;;;;;6.40;1.87;;;;;;;;;;4997587;28;20174;-79
2022/01/30 02:36:54;;;;;;;6.53;2.00;;;;;;;;;;4997001;28;20291;-79
2022/01/30 02:39:21;;;;;;;7.10;2.40;;;;;;;;;;4997021;28;20204;-80
2022/01/30 02:41:47;;;;;;;4.57;1.60;;;;;;;;;;5014836;28;20192;-80
2022/01/30 02:44:20;;;;;;;5.53;1.70;;;;;;;;;;4997485;28;20185;-80
2022/01/30 02:46:49;;;;;;;5.60;2.10;;;;;;;;;;4997584;28;20181;-79
2022/01/30 02:52:10;;;;;;;6.10;1.70;;;;;;;;;;5015124;28;20204;-81
2022/01/30 02:54:34;;;;;;;6.37;1.70;;;;;;;;;;4999739;28;20195;-79
2022/01/30 02:57:00;;;;;;;6.17;1.70;;;;;;;;;;4996912;28;20219;-80
2022/01/30 02:59:27;;;;;;;7.10;2.97;;;;;;;;;;4980785;28;20202;-79
2022/01/30 03:01:53;;;;;;;8.10;1.57;;;;;;;;;;4996722;28;20674;-80
2022/01/30 03:04:19;;;;;;;6.83;2.00;;;;;;;;;;4997562;28;20186;-80
2022/01/30 03:06:46;;;;;;;6.00;1.73;;;;;;;;;;4996786;28;20225;-79
2022/01/30 03:09:12;;;;;;;6.83;2.03;;;;;;;;;;4997028;28;20192;-79
2022/01/30 03:11:38;;;;;;;8.47;2.27;;;;;;;;;;4999967;28;20235;-79
2022/01/30 03:14:05;;;;;;;6.43;2.00;;;;;;;;;;5007492;28;20562;-80
2022/01/30 03:16:31;;;;;;;6.40;1.67;;;;;;;;;;4990505;28;20183;-81
2022/01/30 03:18:57;;;;;;;6.60;1.90;;;;;;;;;;5006613;28;20200;-81
2022/01/30 03:21:23;;;;;;;5.17;1.53;;;;;;;;;;5007183;28;20195;-80
2022/01/30 03:23:49;;;;;;;5.90;2.20;;;;;;;;;;5007013;28;20186;-82
2022/01/30 03:26:15;;;;;;;7.77;1.90;;;;;;;;;;5007406;28;20175;-81
2022/01/30 03:28:43;;;;;;;7.40;2.10;;;;;;;;;;5006358;28;20175;-80
2022/01/30 03:31:12;;;;;;;6.03;1.47;;;;;;;;;;4990743;28;20557;-80
2022/01/30 03:33:39;;;;;;;5.17;2.00;;;;;;;;;;5007219;28;20175;-80
2022/01/30 03:36:05;;;;;;;6.07;1.77;;;;;;;;;;5006345;28;20189;-80
2022/01/30 03:38:32;;;;;;;8.17;2.00;;;;;;;;;;5006621;28;20642;-80
2022/01/30 03:40:58;;;;;;;6.33;1.80;;;;;;;;;;5008933;28;20181;-80
2022/01/30 03:43:24;;;;;;;9.23;2.27;;;;;;;;;;4991067;28;20176;-80
2022/01/30 03:45:51;;;;;;;6.23;2.00;;;;;;;;;;4990374;28;20174;-79
2022/01/30 03:48:17;;;;;;;6.93;2.43;;;;;;;;;;5006208;28;20175;-80
2022/01/30 03:50:43;;;;;;;8.30;2.10;;;;;;;;;;5007561;28;20175;-79
2022/01/30 03:53:09;;;;;;;5.10;1.80;;;;;;;;;;4994434;28;20203;-80
2022/01/30 03:55:35;;;;;;;5.90;1.73;;;;;;;;;;4994124;28;20654;-80
2022/01/30 03:58:01;;;;;;;6.87;1.93;;;;;;;;;;5009510;28;20185;-81
2022/01/30 04:00:28;;;;;;;7.27;1.90;;;;;;;;;;5010693;28;20647;-80
2022/01/30 04:02:54;;;;;;;8.40;2.23;;;;;;;;;;5010605;28;20294;-81
2022/01/30 04:05:20;;;;;;;4.63;1.60;;;;;;;;;;4993718;28;20210;-80
2022/01/30 04:07:46;;;;;;;10.17;2.20;;;;;;;;;;4994014;28;20183;-82
2022/01/30 04:10:13;;;;;;;9.13;2.20;;;;;;;;;;4993751;28;20183;-80
2022/01/30 04:12:39;;;;;;;7.50;2.27;;;;;;;;;;5009014;28;20203;-79
2022/01/30 04:15:06;;;;;;;7.90;1.67;;;;;;;;;;4993459;28;20176;-81
2022/01/30 04:17:32;;;;;;;7.63;1.70;;;;;;;;;;4993782;28;20183;-81
2022/01/30 04:19:58;;;;;;;5.57;2.40;;;;;;;;;;4993320;28;20210;-81
2022/01/30 04:22:24;;;;;;;7.30;1.60;;;;;;;;;;4993239;28;20219;-81
2022/01/30 04:24:50;;;;;;;6.83;2.07;;;;;;;;;;4994082;28;20195;-82
2022/01/30 04:27:16;;;;;;;6.43;1.80;;;;;;;;;;4992743;28;20180;-80
2022/01/30 04:29:42;;;;;;;4.77;1.70;;;;;;;;;;4993310;28;20217;-80
2022/01/30 04:32:10;;;;;;;7.93;2.03;;;;;;;;;;4992544;28;20199;-80
2022/01/30 04:34:36;;;;;;;8.37;2.00;;;;;;;;;;4994055;28;20276;-82
2022/01/30 04:37:14;;;;;;;5.87;1.77;;;;;;;;;;5009281;28;20215;-84
2022/01/30 04:51:58;;;;;;;4.97;1.93;;;;;;;;;;5011191;28;20199;-80
2022/01/30 04:53:41;;;;;;;4.00;1.53;;;;;;;;;;5027017;28;20224;-81
2022/01/30 04:59:07;;;;;;;7.23;1.70;;;;;;;;;;5012024;28;20213;-82
2022/01/30 05:04:28;;;;;;;6.73;1.70;;;;;;;;;;5008726;28;20191;-79
2022/01/30 05:09:24;;;;;;;4.10;1.80;;;;;;;;;;5026821;28;20169;-79
2022/01/30 05:11:50;;;;;;;6.93;1.63;;;;;;;;;;4992161;28;20199;-79
2022/01/30 05:14:20;;;;;;;10.27;2.00;;;;;;;;;;4992608;28;20178;-79
2022/01/30 05:16:46;;;;;;;7.83;1.77;;;;;;;;;;5008343;28;20247;-80
2022/01/30 05:19:12;;;;;;;6.93;1.70;;;;;;;;;;5008155;28;20293;-80
2022/01/30 05:21:39;;;;;;;6.87;1.63;;;;;;;;;;5007051;28;20716;-80
2022/01/30 05:24:05;;;;;;;6.33;1.80;;;;;;;;;;4991569;28;20230;-79
2022/01/30 05:26:32;;;;;;;6.13;1.37;;;;;;;;;;5008075;28;20174;-80
2022/01/30 05:28:58;;;;;;;7.10;1.63;;;;;;;;;;5007548;28;20183;-80
2022/01/30 05:31:24;;;;;;;3.13;0.93;;;;;;;;;;5007832;28;20203;-81
2022/01/30 05:33:51;;;;;;;3.40;1.37;;;;;;;;;;5007964;28;20175;-80
2022/01/30 05:36:17;;;;;;;6.60;1.60;;;;;;;;;;5006584;28;20197;-79
2022/01/30 05:38:43;;;;;;;5.43;1.40;;;;;;;;;;5007038;28;20171;-79
2022/01/30 05:41:10;;;;;;;10.40;1.50;;;;;;;;;;5007443;28;20182;-81
2022/01/30 05:43:38;;;;;;;6.23;1.70;;;;;;;;;;5007837;28;20190;-81
2022/01/30 05:46:12;;;;;;;8.00;1.90;;;;;;;;;;5007486;28;20179;-81
2022/01/30 05:48:38;;;;;;;6.30;1.53;;;;;;;;;;4992039;28;20215;-80
2022/01/30 05:51:04;;;;;;;8.07;1.70;;;;;;;;;;4991314;28;20186;-80
2022/01/30 05:53:30;;;;;;;6.20;1.63;;;;;;;;;;4988970;28;20183;-81
2022/01/30 05:55:56;;;;;;;7.17;1.83;;;;;;;;;;5006937;28;20270;-81
2022/01/30 05:58:22;;;;;;;8.60;2.03;;;;;;;;;;5007508;28;20179;-80
2022/01/30 06:00:48;;;;;;;7.47;1.80;;;;;;;;;;4990959;28;20215;-80
2022/01/30 06:03:15;;;;;;;6.80;1.60;;;;;;;;;;4991868;28;20215;-81
2022/01/30 06:05:41;;;;;;;6.30;1.60;;;;;;;;;;5007205;28;20643;-80
2022/01/30 06:08:14;;;;;;;4.03;1.27;;;;;;;;;;4989830;28;20179;-79
2022/01/30 06:10:40;;;;;;;3.57;1.17;;;;;;;;;;5000853;28;20654;-81
2022/01/30 06:13:06;;;;;;;7.63;1.93;;;;;;;;;;4997458;28;20199;-81
2022/01/30 06:15:32;;;;;;;5.03;1.93;;;;;;;;;;4982418;28;20187;-82
2022/01/30 06:17:58;;;;;;;7.00;1.90;;;;;;;;;;4981986;28;20274;-81
2022/01/30 06:20:24;;;;;;;9.40;1.60;;;;;;;;;;4998034;28;20711;-82
2022/01/30 06:22:50;;;;;;;6.33;1.50;;;;;;;;;;4981973;28;20253;-82
2022/01/30 06:25:16;;;;;;;7.43;1.77;;;;;;;;;;4998454;28;20629;-79
2022/01/30 06:27:42;;;;;;;5.50;1.70;;;;;;;;;;4981318;28;20182;-80
2022/01/30 06:30:09;;;;;;;6.03;2.10;;;;;;;;;;4981926;28;20190;-80
2022/01/30 06:32:35;;;;;;;7.60;1.63;;;;;;;;;;4998409;28;20191;-79
2022/01/30 06:35:01;;;;;;;5.43;1.40;;;;;;;;;;4998993;28;20267;-78
2022/01/30 06:37:27;;;;;;;9.33;1.80;;;;;;;;;;5014331;28;20186;-79
2022/01/30 06:39:53;;;;;;;4.90;1.47;;;;;;;;;;4986464;28;20208;-79
2022/01/30 06:42:19;;;;;;;7.60;2.07;;;;;;;;;;5011085;28;20304;-79
2022/01/30 06:44:45;;;;;;;8.07;1.77;;;;;;;;;;5010813;28;20583;-79
2022/01/30 06:47:12;;;;;;;3.60;1.50;;;;;;;;;;4994503;28;20262;-79
2022/01/30 06:49:38;;;;;;;7.67;1.67;;;;;;;;;;4994115;28;20199;-78
2022/01/30 06:52:06;;;;;;;7.67;1.90;;;;;;;;;;5027649;28;20203;-79
2022/01/30 06:54:32;;;;;;;4.43;1.50;;;;;;;;;;4995284;28;20216;-79
2022/01/30 06:56:58;;;;;;;4.70;1.70;;;;;;;;;;5011224;28;20188;-79
2022/01/30 06:59:24;;;;;;;7.27;1.80;;;;;;;;;;5010303;28;20218;-78
2022/01/30 07:01:52;;;;;;;9.77;1.77;;;;;;;;;;5011129;28;20691;-79
2022/01/30 07:04:20;;;;;;;3.23;1.53;;;;;;;;;;4994542;28;20203;-78
2022/01/30 07:06:46;;;;;;;5.30;1.80;;;;;;;;;;5009111;28;20180;-78
2022/01/30 07:09:12;;;;;;;5.50;1.47;;;;;;;;;;5009221;28;20184;-78
2022/01/30 07:11:38;;;;;;;6.17;1.87;;;;;;;;;;5011385;28;20660;-77
2022/01/30 07:14:04;;;;;;;6.20;1.73;;;;;;;;;;4994292;28;20191;-77
2022/01/30 07:16:30;;;;;;;3.87;1.37;;;;;;;;;;4993725;28;20202;-78
2022/01/30 07:18:56;;;;;;;5.10;1.63;;;;;;;;;;5024462;28;20179;-77
2022/01/30 07:21:22;;;;;;;4.17;1.50;;;;;;;;;;5008657;28;20678;-77
2022/01/30 07:23:48;;;;;;;4.83;1.30;;;;;;;;;;5008618;28;20183;-75
2022/01/30 07:26:14;;;;;;;4.73;1.50;;;;;;;;;;5008326;28;20210;-76
2022/01/30 07:28:40;;;;;;;6.40;1.70;;;;;;;;;;5008082;28;20253;-76
2022/01/30 07:31:06;;;;;;;5.50;1.50;;;;;;;;;;5015222;28;20313;-78
2022/01/30 07:33:33;;;;;;;9.47;1.80;;;;;;;;;;4990710;28;20202;-78
2022/01/30 07:35:59;;;;;;;4.63;1.83;;;;;;;;;;5007835;28;20174;-78
2022/01/30 07:38:27;;;;;;;5.50;1.40;;;;;;;;;;5013434;28;20179;-79
2022/01/30 07:40:53;;;;;;;6.73;1.50;;;;;;;;;;5010776;28;20240;-80
2022/01/30 07:43:19;;;;;;;3.53;1.50;;;;;;;;;;5017521;28;20197;-81
2022/01/30 07:45:45;;;;;;;5.00;1.50;;;;;;;;;;5002405;28;20182;-81
2022/01/30 07:48:11;;;;;;;4.53;1.67;;;;;;;;;;5000418;28;20550;-81
2022/01/30 07:50:37;;;;;;;4.80;1.53;;;;;;;;;;5000264;28;20185;-83
2022/01/30 07:53:03;;;;;;;5.30;1.43;;;;;;;;;;5001587;28;20240;-80
2022/01/30 07:55:29;;;;;;;4.57;1.57;;;;;;;;;;5001873;28;20624;-83
2022/01/30 07:57:55;;;;;;;6.03;1.97;;;;;;;;;;5002715;28;20657;-83
2022/01/30 08:00:21;;;;;;;6.17;1.77;;;;;;;;;;5000059;28;20680;-83
2022/01/30 08:02:49;;;;;;;5.10;1.60;;;;;;;;;;5031381;22;20233;-81
2022/01/30 08:05:16;;;;;;;5.00;1.53;;;;;;;;;;5000253;28;20181;-80
2022/01/30 08:07:42;;;;;;;3.20;1.33;;;;;;;;;;5033140;28;20240;-82
2022/01/30 08:10:08;;;;;;;3.40;1.43;;;;;;;;;;5014748;28;20186;-82
2022/01/30 08:12:35;;;;;;;3.90;1.40;;;;;;;;;;5014988;28;20198;-83
2022/01/30 08:15:01;;;;;;;2.37;1.20;;;;;;;;;;4999593;28;20233;-82
2022/01/30 08:17:31;;;;;;;3.27;1.03;;;;;;;;;;5015011;28;20193;-82
2022/01/30 08:19:57;;;;;;;6.33;1.80;;;;;;;;;;5000141;28;20221;-82
2022/01/30 08:22:23;;;;;;;2.97;1.40;;;;;;;;;;4999705;28;20190;-82
2022/01/30 08:24:49;;;;;;;2.63;1.47;;;;;;;;;;4999486;28;20179;-82
2022/01/30 08:27:15;;;;;;;4.80;1.40;;;;;;;;;;4999104;28;20261;-82
2022/01/30 08:29:41;;;;;;;3.40;1.70;;;;;;;;;;4999209;28;20186;-82
2022/01/30 08:32:11;;;;;;;2.77;1.27;;;;;;;;;;4999236;28;20208;-82
2022/01/30 08:34:37;;;;;;;4.80;1.47;;;;;;;;;;5000127;28;20238;-83
2022/01/30 08:37:03;;;;;;;3.97;1.50;;;;;;;;;;5001020;28;20187;-83
2022/01/30 08:39:29;;;;;;;7.03;1.73;;;;;;;;;;5002867;28;20218;-82
2022/01/30 08:41:55;;;;;;;7.90;1.80;;;;;;;;;;5002766;28;20194;-82
2022/01/30 08:44:21;;;;;;;7.83;1.83;;;;;;;;;;5003114;28;20226;-83
2022/01/30 08:46:47;;;;;;;6.50;2.00;;;;;;;;;;5018969;28;20217;-83
2022/01/30 08:49:14;;;;;;;5.77;1.60;;;;;;;;;;5037000;28;20171;-83
2022/01/30 08:51:40;;;;;;;6.83;2.10;;;;;;;;;;5002874;28;20677;-82
2022/01/30 08:54:06;;;;;;;6.23;1.87;;;;;;;;;;5019036;28;20277;-83
2022/01/30 08:56:32;;;;;;;7.53;1.90;;;;;;;;;;5002938;28;20206;-82
2022/01/30 08:58:58;;;;;;;9.20;2.20;;;;;;;;;;5018615;28;20185;-82
2022/01/30 09:01:24;;;;;;;10.10;2.40;;;;;;;;;;5018463;28;20182;-82
2022/01/30 09:03:51;;;;;;;9.90;1.97;;;;;;;;;;5019126;28;20593;-82
2022/01/30 09:06:17;;;;;;;8.43;2.40;;;;;;;;;;5018778;28;20218;-82
2022/01/30 09:08:43;;;;;;;10.30;1.97;;;;;;;;;;5002105;28;20193;-82
2022/01/30 09:11:09;;;;;;;8.37;1.83;;;;;;;;;;5002337;28;20269;-82
2022/01/30 09:13:35;;;;;;;4.53;1.50;;;;;;;;;;5017342;28;20201;-82
2022/01/30 09:16:03;;;;;;;6.27;1.50;;;;;;;;;;5001390;28;20189;-82
2022/01/30 09:18:30;;;;;;;6.17;1.70;;;;;;;;;;5001318;28;20675;-82
2022/01/30 09:20:56;;;;;;;2.83;1.47;;;;;;;;;;5017175;28;20202;-82
2022/01/30 09:23:22;;;;;;;8.23;2.10;;;;;;;;;;5000847;28;20209;-82
2022/01/30 09:25:48;;;;;;;7.40;1.60;;;;;;;;;;5001480;28;20269;-82
2022/01/30 09:28:14;;;;;;;6.70;1.77;;;;;;;;;;5016868;28;20185;-82
2022/01/30 09:30:40;;;;;;;7.07;1.80;;;;;;;;;;5000858;28;20240;-82
2022/01/30 09:33:06;;;;;;;5.10;1.80;;;;;;;;;;5017185;28;20208;-82
2022/01/30 09:35:32;;;;;;;6.93;2.07;;;;;;;;;;5000802;28;20193;-82
2022/01/30 09:37:58;;;;;;;7.47;2.10;;;;;;;;;;5000460;28;20186;-82
2022/01/30 09:40:24;;;;;;;6.13;1.83;;;;;;;;;;5016962;28;20232;-82
2022/01/30 09:42:50;;;;;;;7.47;2.15;;;;;;;;;;5000087;28;20421;-82
2022/01/30 09:45:20;;;;;;;6.50;1.80;;;;;;;;;;5000165;28;20179;-83
2022/01/30 09:47:46;;;;;;;7.37;1.80;;;;;;;;;;5015295;28;20737;-82
2022/01/30 09:50:12;;;;;;;6.03;1.70;;;;;;;;;;5016334;28;20265;-82
2022/01/30 09:52:38;;;;;;;8.93;2.10;;;;;;;;;;5001306;28;20208;-82
2022/01/30 09:55:05;;;;;;;8.10;1.67;;;;;;;;;;5018648;28;20225;-82
2022/01/30 09:57:31;;;;;;;7.83;2.17;;;;;;;;;;5017195;28;20178;-81
2022/01/30 09:59:57;;;;;;;8.83;2.00;;;;;;;;;;5016792;28;20259;-83
2022/01/30 10:02:26;;;;;;;5.60;2.20;;;;;;;;;;5017063;28;20214;-82
2022/01/30 10:04:52;;;;;;;6.43;1.60;;;;;;;;;;5000976;28;20285;-82
2022/01/30 10:07:20;;;;;;;7.97;1.90;;;;;;;;;;5017559;28;20189;-82
2022/01/30 10:09:49;;;;;;;7.17;1.77;;;;;;;;;;5001382;28;20178;-82
2022/01/30 10:12:16;;;;;;;10.10;2.30;;;;;;;;;;5016485;28;20236;-82
2022/01/30 10:14:49;;;;;;;7.80;1.90;;;;;;;;;;5000612;28;20662;-82
2022/01/30 10:17:33;;;;;;;7.70;2.33;;;;;;;;;;5016419;28;20178;-82
2022/01/30 10:20:06;;;;;;;5.87;1.90;;;;;;;;;;5016347;28;20202;-82
2022/01/30 10:22:32;;;;;;;11.53;5.20;;;;;;;;;;5017790;28;20199;-81
2022/01/30 10:24:58;;;;;;;6.77;2.43;;;;;;;;;;5003711;28;20186;-80
2022/01/30 10:27:26;;;;;;;6.87;1.60;;;;;;;;;;5010380;28;20185;-81
2022/01/30 10:30:00;;;;;;;9.50;1.90;;;;;;;;;;5009338;28;20259;-81
2022/01/30 10:32:26;;;;;;;10.33;2.77;;;;;;;;;;5025839;28;20202;-80
2022/01/30 10:35:10;;;;;;;10.63;2.40;;;;;;;;;;5009222;28;20189;-80
2022/01/30 10:37:39;;;;;;;9.43;2.30;;;;;;;;;;5025749;28;20202;-80
2022/01/30 10:40:11;;;;;;;8.83;1.93;;;;;;;;;;5026862;28;20198;-80
2022/01/30 10:42:38;;;;;;;7.37;2.13;;;;;;;;;;5011880;28;20205;-80
2022/01/30 10:45:05;;;;;;;6.57;2.20;;;;;;;;;;5026229;28;20629;-80
2022/01/30 10:47:32;;;;;;;6.30;2.03;;;;;;;;;;5027139;28;20637;-80
2022/01/30 10:49:59;;;;;;;6.63;2.03;;;;;;;;;;5026240;28;20209;-80
2022/01/30 10:52:25;;;;;;;7.40;2.07;;;;;;;;;;5026608;28;20198;-81
2022/01/30 10:54:51;;;;;;;5.40;1.90;;;;;;;;;;5026206;28;20182;-80
2022/01/30 10:57:17;;;;;;;10.33;2.33;;;;;;;;;;5025633;28;20186;-80
2022/01/30 10:59:52;;;;;;;7.83;2.00;;;;;;;;;;5008704;28;20214;-80
2022/01/30 11:02:22;;;;;;;7.27;2.47;;;;;;;;;;5025448;28;20296;-81
2022/01/30 11:04:49;;;;;;;6.40;2.40;;;;;;;;;;5025975;28;20193;-81
2022/01/30 11:07:17;;;;;;;8.50;2.43;;;;;;;;;;5024350;28;20178;-81
2022/01/30 11:10:08;;;;;;;7.03;2.47;;;;;;;;;;5012507;28;20190;-81
2022/01/30 11:12:43;;;;;;;11.27;2.30;;;;;;;;;;5025369;28;20220;-82
2022/01/30 11:15:20;;;;;;;6.70;2.03;;;;;;;;;;5011717;28;20184;-81
2022/01/30 11:17:47;;;;;;;11.07;2.47;;;;;;;;;;5025446;28;20597;-81
2022/01/30 11:20:13;;;;;;;13.73;2.70;;;;;;;;;;5026623;28;20309;-81
2022/01/30 11:22:41;;;;;;;10.00;2.20;;;;;;;;;;5029229;28;20208;-81
2022/01/30 11:25:12;;;;;;;10.97;1.93;;;;;;;;;;5024736;28;20707;-80
2022/01/30 11:27:40;;;;;;;7.43;2.40;;;;;;;;;;5022466;28;20242;-81
2022/01/30 11:30:06;;;;;;;11.30;2.30;;;;;;;;;;5005232;28;20570;-81
2022/01/30 11:32:32;;;;;;;9.83;1.90;;;;;;;;;;5020344;28;20203;-81
2022/01/30 11:34:58;;;;;;;5.87;2.10;;;;;;;;;;5020629;28;20262;-81
2022/01/30 11:37:28;;;;;;;13.33;2.57;;;;;;;;;;5022046;28;20670;-81
2022/01/30 11:39:54;;;;;;;11.10;2.53;;;;;;;;;;5021890;28;20206;-81
2022/01/30 11:42:40;;;;;;;16.47;3.07;;;;;;;;;;5020179;28;20195;-81
2022/01/30 11:45:09;;;;;;;10.57;2.80;;;;;;;;;;5019769;28;20186;-81
2022/01/30 11:47:44;;;;;;;8.97;2.20;;;;;;;;;;5019796;28;20175;-81
2022/01/30 11:50:10;;;;;;;8.47;2.30;;;;;;;;;;5021712;28;20208;-81
2022/01/30 11:52:50;;;;;;;7.13;2.70;;;;;;;;;;5024099;28;20275;-80
2022/01/30 11:55:35;;;;;;;16.17;2.37;;;;;;;;;;5022911;28;20178;-81
2022/01/30 11:58:01;;;;;;;10.83;2.13;;;;;;;;;;5030904;28;20203;-80
2022/01/30 12:00:38;;;;;;;10.67;2.20;;;;;;;;;;5009626;28;20237;-81
2022/01/30 12:03:24;;;;;;;9.70;2.77;;;;;;;;;;5009732;28;20353;-81
2022/01/30 12:05:50;;;;;;;7.83;2.00;;;;;;;;;;5006042;28;20276;-79
2022/01/30 12:08:35;;;;;;;10.27;2.40;;;;;;;;;;5021720;28;20182;-82
2022/01/30 12:11:01;;;;;;;9.83;2.47;;;;;;;;;;5029149;28;20248;-82
2022/01/30 12:13:43;;;;;;;11.20;2.57;;;;;;;;;;5010643;28;20695;-81
2022/01/30 12:16:29;;;;;;;7.20;2.40;;;;;;;;;;5019056;28;20189;-81
2022/01/30 12:18:55;;;;;;;9.67;2.60;;;;;;;;;;5018610;28;20184;-81
2022/01/30 12:21:26;;;;;;;12.87;2.40;;;;;;;;;;5019104;28;20175;-81
2022/01/30 12:23:52;;;;;;;8.03;2.50;;;;;;;;;;5039312;28;20152;-80
2022/01/30 12:26:19;;;;;;;14.07;2.50;;;;;;;;;;5020306;28;20175;-79
2022/01/30 12:28:51;;;;;;;15.77;2.77;;;;;;;;;;5037649;28;20168;-78
2022/01/30 12:31:34;;;;;;;7.77;2.63;;;;;;;;;;5024421;28;20672;-80
2022/01/30 12:34:15;;;;;;;10.87;3.20;;;;;;;;;;5022500;28;20171;-82
2022/01/30 12:36:43;;;;;;;12.90;2.90;;;;;;;;;;5002692;28;20210;-79
2022/01/30 12:39:16;;;;;;;12.27;2.47;;;;;;;;;;5035155;28;20170;-81
2022/01/30 12:41:43;;;;;;;12.30;2.37;;;;;;;;;;5035574;28;20205;-81
2022/01/30 12:44:11;;;;;;;10.03;2.40;;;;;;;;;;5017649;28;20177;-81
2022/01/30 12:46:37;;;;;;;13.37;3.30;;;;;;;;;;5001546;28;20179;-80
2022/01/30 12:49:05;;;;;;;11.43;2.80;;;;;;;;;;5017656;28;20221;-81
2022/01/30 12:51:31;;;;;;;11.17;2.93;;;;;;;;;;5035428;28;20167;-82
2022/01/30 12:53:58;;;;;;;11.37;2.37;;;;;;;;;;5001491;28;20209;-81
2022/01/30 12:56:24;;;;;;;13.77;3.00;;;;;;;;;;5017249;28;20174;-81
2022/01/30 12:58:54;;;;;;;12.63;3.03;;;;;;;;;;5017678;28;20587;-81
2022/01/30 13:01:24;;;;;;;11.17;2.67;;;;;;;;;;5017403;28;20252;-81
2022/01/30 13:04:00;;;;;;;13.03;2.80;;;;;;;;;;5017674;28;20529;-81
2022/01/30 13:06:33;;;;;;;15.30;2.90;;;;;;;;;;5017412;28;20632;-80
2022/01/30 13:08:59;;;;;;;11.13;2.27;;;;;;;;;;5017140;28;20175;-80
2022/01/30 13:11:25;;;;;;;9.50;2.37;;;;;;;;;;5017123;28;20175;-80
2022/01/30 13:13:57;;;;;;;9.80;2.60;;;;;;;;;;5017301;28;20170;-80
2022/01/30 13:16:27;;;;;;;13.47;2.43;;;;;;;;;;5016973;28;20641;-80
2022/01/30 13:18:53;;;;;;;8.43;1.97;;;;;;;;;;5017171;28;20283;-80
2022/01/30 13:21:24;;;;;;;13.90;3.03;;;;;;;;;;5017046;28;20172;-80
2022/01/30 13:23:50;;;;;;;7.63;2.13;;;;;;;;;;5000360;28;20189;-80
2022/01/30 13:26:32;;;;;;;9.17;2.10;;;;;;;;;;5000789;28;20272;-81
2022/01/30 13:28:59;;;;;;;9.63;2.30;;;;;;;;;;5000625;28;20178;-80
2022/01/30 13:31:25;;;;;;;9.53;2.70;;;;;;;;;;5016961;28;20175;-81
2022/01/30 13:34:07;;;;;;;9.90;2.40;;;;;;;;;;5016858;28;20264;-80
2022/01/30 13:36:34;;;;;;;9.00;2.50;;;;;;;;;;5016976;28;20320;-81
2022/01/30 13:39:05;;;;;;;14.20;2.60;;;;;;;;;;5016581;28;20185;-81
2022/01/30 13:41:34;;;;;;;13.87;2.87;;;;;;;;;;5001115;28;20174;-80
2022/01/30 13:44:00;;;;;;;14.40;2.67;;;;;;;;;;5034490;28;20249;-80
2022/01/30 13:49:11;;;;;;;12.60;2.30;;;;;;;;;;5034399;28;20182;-80
2022/01/30 13:51:38;;;;;;;6.53;2.20;;;;;;;;;;5016404;28;20197;-80
2022/01/30 13:54:12;;;;;;;10.73;2.40;;;;;;;;;;5016729;28;20640;-80
2022/01/30 13:56:38;;;;;;;10.33;2.47;;;;;;;;;;5000808;28;20190;-80
2022/01/30 13:59:04;;;;;;;11.67;2.23;;;;;;;;;;5016094;28;20170;-80
2022/01/30 14:01:30;;;;;;;13.63;2.90;;;;;;;;;;5015995;28;20625;-80
2022/01/30 14:04:22;;;;;;;13.40;2.77;;;;;;;;;;5038803;22;20224;-82
2022/01/30 14:06:49;;;;;;;8.33;2.50;;;;;;;;;;5030175;28;20189;-82
2022/01/30 14:09:19;;;;;;;13.30;3.10;;;;;;;;;;5032739;28;20186;-83
2022/01/30 14:11:52;;;;;;;12.07;2.30;;;;;;;;;;5016599;28;20714;-82
2022/01/30 14:14:21;;;;;;;8.03;2.47;;;;;;;;;;5032537;28;20171;-82
2022/01/30 14:16:52;;;;;;;9.60;2.23;;;;;;;;;;5032684;28;20202;-82
2022/01/30 14:19:19;;;;;;;9.43;2.40;;;;;;;;;;5032768;28;20201;-82
2022/01/30 14:21:46;;;;;;;11.53;2.77;;;;;;;;;;5015980;28;20178;-82
2022/01/30 14:24:16;;;;;;;14.47;2.50;;;;;;;;;;5032802;28;20197;-82
2022/01/30 14:26:42;;;;;;;14.17;2.80;;;;;;;;;;5032613;28;20178;-82
2022/01/30 14:29:10;;;;;;;13.87;2.90;;;;;;;;;;5015992;28;20210;-82
2022/01/30 14:31:48;;;;;;;7.50;2.47;;;;;;;;;;5015816;28;20599;-82
2022/01/30 14:34:14;;;;;;;14.63;2.80;;;;;;;;;;5031804;28;20625;-82
2022/01/30 14:36:40;;;;;;;16.43;2.93;;;;;;;;;;5015788;28;20201;-82
2022/01/30 14:39:06;;;;;;;11.93;2.70;;;;;;;;;;5015826;28;20179;-82
2022/01/30 14:41:32;;;;;;;13.87;3.07;;;;;;;;;;5012634;28;20197;-82
2022/01/30 14:43:58;;;;;;;12.60;2.77;;;;;;;;;;5031779;28;20276;-82
2022/01/30 14:46:24;;;;;;;13.03;3.33;;;;;;;;;;5023442;28;20231;-82
2022/01/30 14:48:50;;;;;;;12.27;3.00;;;;;;;;;;5015310;28;20193;-81
2022/01/30 14:51:16;;;;;;;10.23;3.13;;;;;;;;;;5015350;28;20178;-82
2022/01/30 14:53:42;;;;;;;13.00;3.10;;;;;;;;;;5031889;28;20228;-82
2022/01/30 14:56:08;;;;;;;9.13;2.50;;;;;;;;;;5013881;28;20209;-81
2022/01/30 14:58:34;;;;;;;15.77;3.43;;;;;;;;;;5006933;28;20216;-80
2022/01/30 15:01:00;;;;;;;8.87;2.20;;;;;;;;;;5007997;28;20211;-84
2022/01/30 15:03:31;;;;;;;9.83;2.50;;;;;;;;;;5004105;28;20221;-83
2022/01/30 15:05:57;;;;;;;10.43;2.70;;;;;;;;;;5016166;28;20174;-86
2022/01/30 15:08:23;;;;;;;13.93;2.60;;;;;;;;;;5015349;28;20182;-86
2022/01/30 15:10:49;;;;;;;9.47;3.13;;;;;;;;;;5031406;28;20316;-86
2022/01/30 15:13:15;;;;;;;8.57;2.80;;;;;;;;;;5031554;28;20281;-88
2022/01/30 15:15:42;;;;;;;10.27;2.20;;;;;;;;;;5015172;28;20189;-86
2022/01/30 15:18:23;;;;;;;12.37;2.63;;;;;;;;;;5015047;28;20194;-86
2022/01/30 15:20:50;;;;;;;13.00;2.63;;;;;;;;;;5031881;28;20205;-86
2022/01/30 15:23:17;;;;;;;11.50;2.83;;;;;;;;;;5015031;28;20289;-85
2022/01/30 15:25:43;;;;;;;9.33;2.83;;;;;;;;;;5031523;28;20637;-85
2022/01/30 15:28:09;;;;;;;10.80;3.00;;;;;;;;;;5014886;28;20185;-86
2022/01/30 15:30:35;;;;;;;10.47;3.10;;;;;;;;;;5031157;28;20378;-86
2022/01/30 15:33:01;;;;;;;12.57;2.90;;;;;;;;;;5015002;28;20206;-85
2022/01/30 15:35:27;;;;;;;13.57;2.80;;;;;;;;;;5031177;28;20175;-85
2022/01/30 15:37:54;;;;;;;9.90;2.80;;;;;;;;;;5031321;28;20178;-85
2022/01/30 15:40:20;;;;;;;9.13;2.33;;;;;;;;;;5031337;28;20214;-85